Pembroke Pines, Florida
Current Conditions -  °F | °C
As of 8:53 PM on Saturday 22 Nov 2014 (Local Time) from KHWO Reporting Station
Overcast Overcast  
Wind Chill: 77°   Ceiling: 3400
Heat Index: 79°   Visibility: 10mi
Dew Point: 70°   Wind: 20mph
Humidity: 79%   Direction: 100°E
Pressure: 30.1"   Gusts: 25mph
Location:  26.01°N, 80.28°W
Report Text: KHWO 230153Z 10017G22KT 10SM SCT024 BKN034 OVC060 25/21 A3010 RMK AO2 PK WND 11028/0101 RAE03B29E43 SLP192 P0000 T02500211
Loading
Personal Weather Stations






























Interactive Weather Map New forecast layout! Learn more

10-Day Weather Forecast

Advertisements
Track Severe Weather on mobile